createdAt,value
2022-11-01T00:02:07.434Z,99.90
2022-11-01T00:04:37.372Z,99.90
2022-11-01T00:07:08.018Z,98.10
2022-11-01T00:09:38.135Z,73.20
2022-11-01T00:12:09.066Z,56.30
2022-11-01T00:14:41.528Z,48.50
2022-11-01T00:17:12.208Z,46.70
2022-11-01T00:19:42.138Z,40.70
2022-11-01T00:22:12.824Z,36.30
2022-11-01T00:24:42.952Z,30.60
2022-11-01T00:27:13.214Z,27.70
2022-11-01T00:29:45.674Z,26.20
2022-11-01T00:32:16.845Z,27.10
2022-11-01T00:34:47.184Z,26.10
2022-11-01T00:37:17.868Z,24.70
2022-11-01T00:39:47.741Z,25.70
2022-11-01T00:42:18.282Z,27.10
2022-11-01T00:44:50.766Z,32.50
2022-11-01T00:47:21.328Z,33.20
2022-11-01T00:49:53.716Z,32.00
2022-11-01T00:52:26.367Z,33.60
2022-11-01T00:54:56.236Z,35.10
2022-11-01T00:57:26.518Z,35.00
2022-11-01T01:00:01.927Z,37.10
2022-11-01T01:02:32.871Z,33.20
2022-11-01T01:05:02.788Z,31.20
2022-11-01T01:07:33.455Z,29.90
2022-11-01T01:10:08.353Z,29.90
2022-11-01T01:12:39.073Z,31.70
2022-11-01T01:15:13.383Z,26.10
2022-11-01T01:17:49.331Z,29.20
2022-11-01T01:20:20.427Z,32.00
2022-11-01T01:22:51.084Z,41.00
2022-11-01T01:25:22.022Z,37.90
2022-11-01T01:27:54.322Z,46.10
2022-11-01T01:30:27.064Z,64.60
2022-11-01T01:32:57.396Z,69.90
2022-11-01T01:35:33.144Z,81.20
2022-11-01T01:38:03.606Z,74.40
2022-11-01T01:40:34.724Z,74.80
2022-11-01T01:43:05.980Z,79.70
2022-11-01T01:45:41.751Z,79.30
2022-11-01T01:48:20.752Z,83.10
2022-11-01T01:50:56.260Z,83.80
2022-11-01T01:53:30.954Z,95.20
2022-11-01T01:56:04.739Z,99.90
2022-11-01T01:58:38.579Z,99.90
2022-11-01T02:01:12.157Z,99.90
2022-11-01T02:03:44.786Z,99.90
2022-11-01T02:06:16.779Z,99.90
2022-11-01T02:08:49.452Z,99.90
2022-11-01T02:11:21.636Z,99.90
2022-11-01T02:13:52.020Z,99.90
2022-11-01T02:16:53.013Z,99.90
2022-11-01T02:19:54.986Z,99.90
2022-11-01T02:22:31.092Z,99.90
2022-11-01T02:25:11.874Z,99.90
2022-11-01T02:28:11.016Z,99.90
2022-11-01T02:30:48.598Z,99.90
2022-11-01T02:33:29.564Z,99.90
2022-11-01T02:36:07.864Z,99.90
2022-11-01T02:38:42.948Z,99.90
2022-11-01T02:41:19.714Z,99.90
2022-11-01T02:43:55.504Z,99.90
2022-11-01T02:46:39.275Z,99.90
2022-11-01T02:49:15.844Z,99.90
2022-11-01T02:51:47.695Z,99.90
2022-11-01T02:54:24.113Z,99.90
2022-11-01T02:56:55.002Z,99.90
2022-11-01T02:59:27.958Z,99.90
2022-11-01T03:02:04.807Z,99.90
2022-11-01T03:04:38.173Z,99.90
2022-11-01T03:07:13.452Z,99.90
2022-11-01T03:09:45.176Z,99.90
2022-11-01T03:12:22.834Z,99.90
2022-11-01T03:15:00.552Z,99.90
2022-11-01T03:17:36.444Z,99.90
2022-11-01T03:20:18.486Z,99.90
2022-11-01T03:22:53.420Z,99.90
2022-11-01T03:25:42.309Z,99.90
2022-11-01T03:28:19.313Z,98.70
2022-11-01T03:30:52.835Z,97.00
2022-11-01T03:33:25.733Z,98.40
2022-11-01T03:36:03.645Z,95.00
2022-11-01T03:38:38.624Z,99.00
2022-11-01T03:41:15.239Z,98.40
2022-11-01T03:43:45.153Z,97.20
2022-11-01T03:46:17.223Z,97.80
2022-11-01T03:48:47.291Z,98.70
2022-11-01T03:51:20.757Z,98.60
2022-11-01T03:53:50.647Z,98.60
2022-11-01T03:56:21.253Z,96.40
2022-11-01T03:58:51.535Z,95.90
2022-11-01T04:01:22.210Z,99.20
2022-11-01T04:03:52.252Z,99.40
2022-11-01T04:06:25.152Z,99.90
2022-11-01T04:08:55.356Z,98.90
2022-11-01T04:11:25.982Z,87.50
2022-11-01T04:14:16.011Z,69.70
2022-11-01T04:16:59.483Z,74.60
2022-11-01T04:19:41.974Z,73.20
2022-11-01T04:22:15.115Z,71.30
2022-11-01T04:24:45.322Z,63.40
2022-11-01T04:27:15.991Z,70.40
2022-11-01T04:29:45.866Z,71.80
2022-11-01T04:32:16.577Z,65.50
2022-11-01T04:34:46.465Z,71.60
2022-11-01T04:37:19.360Z,85.80
2022-11-01T04:39:49.244Z,83.20
2022-11-01T04:42:19.825Z,91.10
2022-11-01T04:44:49.704Z,92.10
2022-11-01T04:47:20.412Z,91.10
2022-11-01T04:49:50.295Z,91.90
2022-11-01T04:52:23.410Z,95.20
2022-11-01T04:54:53.395Z,91.30
2022-11-01T04:57:26.969Z,91.80
2022-11-01T04:59:58.412Z,92.50
2022-11-01T05:02:29.309Z,90.30
2022-11-01T05:04:59.211Z,90.60
2022-11-01T05:07:32.381Z,90.40
2022-11-01T05:10:02.691Z,86.00
2022-11-01T05:12:33.199Z,91.00
2022-11-01T05:15:03.205Z,93.80
2022-11-01T05:17:34.269Z,95.30
2022-11-01T05:20:04.185Z,98.50
2022-11-01T05:22:37.688Z,99.90
2022-11-01T05:25:09.449Z,99.90
2022-11-01T05:27:40.289Z,99.90
2022-11-01T05:30:11.652Z,99.90
2022-11-01T05:32:41.943Z,99.90
2022-11-01T05:35:12.396Z,99.90
2022-11-01T05:37:45.777Z,99.90
2022-11-01T05:40:15.913Z,99.90
2022-11-01T05:42:46.493Z,99.90
2022-11-01T05:45:16.533Z,99.90
2022-11-01T05:47:47.221Z,99.90
2022-11-01T05:50:19.019Z,99.90
2022-11-01T05:52:53.101Z,99.90
2022-11-01T05:55:23.223Z,99.90
2022-11-01T05:58:00.896Z,99.90
2022-11-01T06:00:31.262Z,99.90
2022-11-01T06:03:02.977Z,99.90
2022-11-01T06:05:33.709Z,99.90
2022-11-01T06:08:07.012Z,99.90
2022-11-01T06:10:37.034Z,99.90
2022-11-01T06:13:07.211Z,99.90
2022-11-01T06:15:39.653Z,99.90
2022-11-01T06:18:11.786Z,99.90
2022-11-01T06:20:41.652Z,99.90
2022-11-01T06:23:14.653Z,99.90
2022-11-01T06:25:44.640Z,99.90
2022-11-01T06:28:15.858Z,99.90
2022-11-01T06:30:46.686Z,99.90
2022-11-01T06:33:17.017Z,99.90
2022-11-01T06:35:50.866Z,99.90
2022-11-01T06:38:25.480Z,99.90
2022-11-01T06:41:05.995Z,99.90
2022-11-01T06:43:42.082Z,99.90
2022-11-01T06:46:12.060Z,99.90
2022-11-01T06:48:42.480Z,99.90
2022-11-01T06:51:12.438Z,99.90
2022-11-01T06:53:46.082Z,99.90
2022-11-01T06:56:18.097Z,99.90
2022-11-01T06:58:51.909Z,99.90
2022-11-01T07:01:22.547Z,99.90
2022-11-01T07:03:55.130Z,99.90
2022-11-01T07:06:28.856Z,99.90
2022-11-01T07:09:02.679Z,99.90
2022-11-01T07:11:32.625Z,99.90
2022-11-01T07:14:03.696Z,99.90
2022-11-01T07:16:34.731Z,99.90
2022-11-01T07:19:05.260Z,99.90
2022-11-01T07:21:35.143Z,99.90
2022-11-01T07:24:08.399Z,99.90
2022-11-01T07:26:38.443Z,99.90
2022-11-01T07:29:08.822Z,99.90
2022-11-01T07:31:38.958Z,99.90
2022-11-01T07:34:10.024Z,99.90
2022-11-01T07:36:40.111Z,99.90
2022-11-01T07:39:13.692Z,99.90
2022-11-01T07:41:43.628Z,99.90
2022-11-01T07:44:14.875Z,99.90
2022-11-01T07:46:45.094Z,99.90
2022-11-01T07:49:15.242Z,99.90
2022-11-01T07:51:45.499Z,99.90
2022-11-01T07:54:19.443Z,99.90
2022-11-01T07:56:51.038Z,99.90
2022-11-01T07:59:21.713Z,99.90
2022-11-01T08:01:51.797Z,99.90
2022-11-01T08:04:22.419Z,99.90
2022-11-01T08:06:52.564Z,99.90
2022-11-01T08:09:26.042Z,99.90
2022-11-01T08:11:56.385Z,99.90
2022-11-01T08:14:26.685Z,99.90
2022-11-01T08:17:01.948Z,99.90
2022-11-01T08:19:32.401Z,99.90
2022-11-01T08:22:03.829Z,99.90
2022-11-01T08:24:36.700Z,99.90
2022-11-01T08:27:07.509Z,99.90
2022-11-01T08:29:37.515Z,99.90
2022-11-01T08:32:08.588Z,99.90
2022-11-01T08:34:38.572Z,99.90
2022-11-01T08:37:08.958Z,99.90
2022-11-01T08:39:43.686Z,99.90
2022-11-01T08:42:14.079Z,99.90
2022-11-01T08:44:44.120Z,99.90
2022-11-01T08:47:14.984Z,99.90
2022-11-01T08:49:44.962Z,99.90
2022-11-01T08:52:15.578Z,99.90
2022-11-01T08:54:48.186Z,99.90
2022-11-01T08:57:19.409Z,99.90
2022-11-01T08:59:49.468Z,99.90
2022-11-01T09:02:19.891Z,99.90
2022-11-01T09:04:49.920Z,99.90
2022-11-01T09:07:21.781Z,99.90
2022-11-01T09:09:54.511Z,99.90
2022-11-01T09:12:25.005Z,99.90
2022-11-01T09:14:55.031Z,99.90
2022-11-01T09:17:25.755Z,1.00
2022-11-01T09:19:55.849Z,1.00
2022-11-01T09:22:26.614Z,1.00
2022-11-01T09:24:59.516Z,1.00
2022-11-01T09:27:30.219Z,1.00
2022-11-01T09:30:00.383Z,1.00
2022-11-01T09:32:31.713Z,1.00
2022-11-01T09:35:05.844Z,1.00
2022-11-01T09:37:38.622Z,1.00
2022-11-01T09:40:14.395Z,1.00
2022-11-01T09:42:48.806Z,1.00
2022-11-01T09:45:24.897Z,1.00
2022-11-01T09:47:57.837Z,1.00
2022-11-01T09:50:32.750Z,1.00
2022-11-01T09:53:08.401Z,1.00
2022-11-01T09:55:50.805Z,1.00
2022-11-01T09:58:34.161Z,1.00
2022-11-01T10:01:19.581Z,1.00
2022-11-01T10:04:04.973Z,1.00
2022-11-01T10:06:39.185Z,1.00
2022-11-01T10:09:18.809Z,99.90
2022-11-01T10:12:26.067Z,99.90
2022-11-01T10:15:09.881Z,99.90
2022-11-01T10:17:52.943Z,99.90
2022-11-01T10:20:26.661Z,99.90
2022-11-01T10:22:56.936Z,99.90
2022-11-01T10:25:31.350Z,99.90
2022-11-01T10:28:14.049Z,99.90
2022-11-01T10:30:49.379Z,99.90
2022-11-01T10:33:31.798Z,99.90
2022-11-01T10:36:07.471Z,99.90
2022-11-01T10:39:29.986Z,99.90
2022-11-01T10:41:41.178Z,99.90
2022-11-01T10:44:19.222Z,99.90
2022-11-01T10:46:51.521Z,99.90
2022-11-01T10:49:46.237Z,99.90
2022-11-01T10:52:20.328Z,99.90
2022-11-01T10:54:53.460Z,99.90
2022-11-01T10:57:34.861Z,99.90
2022-11-01T11:00:12.525Z,99.90
2022-11-01T11:02:45.988Z,99.90
2022-11-01T11:05:16.708Z,99.90
2022-11-01T11:07:47.716Z,99.90
2022-11-01T11:10:24.216Z,99.90
2022-11-01T11:13:01.276Z,99.90
2022-11-01T11:15:43.259Z,99.90
2022-11-01T11:18:22.802Z,99.90
2022-11-01T11:21:00.223Z,99.90
2022-11-01T11:23:33.527Z,99.90
2022-11-01T11:26:05.492Z,99.90
2022-11-01T11:28:43.215Z,99.90
2022-11-01T11:31:25.361Z,99.90
2022-11-01T11:33:59.200Z,99.90
2022-11-01T11:36:36.223Z,99.90
2022-11-01T11:39:07.413Z,99.90
2022-11-01T11:41:39.790Z,99.90
2022-11-01T11:44:46.513Z,99.90
2022-11-01T11:47:26.901Z,99.90
2022-11-01T11:50:00.985Z,99.90
2022-11-01T11:52:39.123Z,99.90
2022-11-01T11:55:28.632Z,99.90
2022-11-01T11:58:00.280Z,99.90
2022-11-01T12:00:32.677Z,99.90
2022-11-01T12:03:09.072Z,99.90
2022-11-01T12:05:39.097Z,99.90
2022-11-01T12:08:27.649Z,99.90
2022-11-01T12:11:01.148Z,99.90
2022-11-01T12:13:37.070Z,99.90
2022-11-01T12:16:18.189Z,99.90
2022-11-01T12:18:53.445Z,99.40
2022-11-01T12:21:28.266Z,96.20
2022-11-01T12:24:05.669Z,91.70
2022-11-01T12:26:39.092Z,97.30
2022-11-01T12:29:26.694Z,99.80
2022-11-01T12:32:00.768Z,94.80
2022-11-01T12:34:41.550Z,99.90
2022-11-01T12:37:21.662Z,91.60
2022-11-01T12:39:57.389Z,66.60
2022-11-01T12:42:31.991Z,75.00
2022-11-01T12:45:07.376Z,53.50
2022-11-01T12:47:43.391Z,39.80
2022-11-01T12:50:24.096Z,12.90
2022-11-01T12:52:58.786Z,9.40
2022-11-01T12:55:36.886Z,26.20
2022-11-01T12:58:16.012Z,19.90
2022-11-01T13:01:08.336Z,19.70
2022-11-01T13:03:50.860Z,34.50
2022-11-01T13:06:50.639Z,34.60
2022-11-01T13:09:29.493Z,34.90
2022-11-01T13:12:08.204Z,44.90
2022-11-01T13:14:50.620Z,46.90
2022-11-01T13:17:29.987Z,53.70
2022-11-01T13:20:07.177Z,34.60
2022-11-01T13:22:45.347Z,30.70
2022-11-01T13:25:22.864Z,36.20
2022-11-01T13:28:06.987Z,50.10
2022-11-01T13:30:44.941Z,50.40
2022-11-01T13:33:23.038Z,52.50
2022-11-01T13:36:00.742Z,55.30
2022-11-01T13:38:41.499Z,77.90
2022-11-01T13:41:20.201Z,53.00
2022-11-01T13:43:55.864Z,40.50
2022-11-01T13:46:44.429Z,46.70
2022-11-01T13:49:38.490Z,23.10
2022-11-01T13:52:16.240Z,22.50
2022-11-01T13:54:56.494Z,10.30
2022-11-01T13:57:28.991Z,8.20
2022-11-01T14:00:02.320Z,1.00
2022-11-01T14:03:01.216Z,1.00
2022-11-01T14:05:41.970Z,1.00
2022-11-01T14:08:39.866Z,1.00
2022-11-01T14:11:16.819Z,1.00
2022-11-01T14:13:55.316Z,1.00
2022-11-01T14:16:25.514Z,1.00
2022-11-01T14:19:25.299Z,1.00
2022-11-01T14:21:56.824Z,1.00
2022-11-01T14:24:35.297Z,1.00
2022-11-01T14:27:38.677Z,1.00
2022-11-01T14:30:20.679Z,1.00
2022-11-01T14:33:02.101Z,1.00
2022-11-01T14:35:35.467Z,1.00
2022-11-01T14:38:15.698Z,1.00
2022-11-01T14:40:52.521Z,1.00
2022-11-01T14:43:30.509Z,1.00
2022-11-01T14:46:04.793Z,1.00
2022-11-01T14:48:43.214Z,1.00
2022-11-01T14:51:23.059Z,1.00
2022-11-01T14:54:05.224Z,1.00
2022-11-01T14:56:41.051Z,1.00
2022-11-01T14:59:23.875Z,1.00
2022-11-01T15:01:59.602Z,1.00
2022-11-01T15:04:34.296Z,1.00
2022-11-01T15:07:05.616Z,1.00
2022-11-01T15:09:35.547Z,1.00
2022-11-01T15:12:09.868Z,1.00
2022-11-01T15:14:50.524Z,1.00
2022-11-01T15:17:23.606Z,1.00
2022-11-01T15:19:55.761Z,1.00
2022-11-01T15:22:28.634Z,1.00
2022-11-01T15:25:01.270Z,1.00
2022-11-01T15:27:35.824Z,1.00
2022-11-01T15:30:14.133Z,1.00
2022-11-01T15:32:45.026Z,1.00
2022-11-01T15:35:23.526Z,1.00
2022-11-01T15:37:57.424Z,1.00
2022-11-01T15:40:30.924Z,1.00
2022-11-01T15:43:01.873Z,1.00
2022-11-01T15:45:38.691Z,1.00
2022-11-01T15:48:12.389Z,1.00
2022-11-01T15:50:49.003Z,1.00
2022-11-01T15:53:28.534Z,1.00
2022-11-01T15:56:04.095Z,1.00
2022-11-01T15:58:38.692Z,1.00
2022-11-01T16:01:19.737Z,1.00
2022-11-01T16:03:58.643Z,1.00
2022-11-01T16:06:32.516Z,1.00
2022-11-01T16:09:10.492Z,1.00
2022-11-01T16:11:41.570Z,1.00
2022-11-01T16:14:26.677Z,1.00
2022-11-01T16:17:03.284Z,1.00
2022-11-01T16:19:45.412Z,1.00
2022-11-01T16:22:36.935Z,1.00
2022-11-01T16:25:21.524Z,1.00
2022-11-01T16:27:57.931Z,1.00
2022-11-01T16:30:45.538Z,1.00
2022-11-01T16:33:35.589Z,1.00
2022-11-01T16:36:26.950Z,1.00
2022-11-01T16:39:02.603Z,1.00
2022-11-01T16:41:39.688Z,1.00
2022-11-01T16:44:16.895Z,1.00
2022-11-01T16:46:46.943Z,1.00
2022-11-01T16:49:26.526Z,1.00
2022-11-01T16:51:57.211Z,1.00
2022-11-01T16:54:32.316Z,1.00
2022-11-01T16:57:02.432Z,1.00
2022-11-01T16:59:39.875Z,1.00
2022-11-01T17:02:19.970Z,1.00
2022-11-01T17:04:56.062Z,1.00
2022-11-01T17:07:26.335Z,1.00
2022-11-01T17:09:58.706Z,1.00
2022-11-01T17:12:29.032Z,1.00
2022-11-01T17:14:59.475Z,1.00
2022-11-01T17:17:29.409Z,1.00
2022-11-01T17:20:08.634Z,1.00
2022-11-01T17:22:39.804Z,1.00
2022-11-01T17:25:17.166Z,1.00
2022-11-01T17:27:47.074Z,1.00
2022-11-01T17:30:18.690Z,1.00
2022-11-01T17:32:48.913Z,1.00
2022-11-01T17:35:26.655Z,1.00
2022-11-01T17:37:59.272Z,1.00
2022-11-01T17:40:29.623Z,1.00
2022-11-01T17:42:59.643Z,1.00
2022-11-01T17:45:39.854Z,1.00
2022-11-01T17:48:10.201Z,1.00
2022-11-01T17:50:43.864Z,1.00
2022-11-01T17:53:21.032Z,1.00
2022-11-01T17:55:59.166Z,1.00
2022-11-01T17:58:29.397Z,1.00
2022-11-01T18:01:00.980Z,1.00
2022-11-01T18:03:30.945Z,1.00
2022-11-01T18:06:03.724Z,1.00
2022-11-01T18:08:36.902Z,1.00
2022-11-01T18:11:14.765Z,1.00
2022-11-01T18:13:52.997Z,1.00
2022-11-01T18:16:30.713Z,1.00
2022-11-01T18:19:18.286Z,1.00
2022-11-01T18:22:00.156Z,1.00
2022-11-01T18:24:38.955Z,1.00
2022-11-01T18:27:12.323Z,1.00
2022-11-01T18:29:44.396Z,1.00
2022-11-01T18:32:21.292Z,1.00
2022-11-01T18:34:58.432Z,1.00
2022-11-01T18:37:44.048Z,1.00
2022-11-01T18:40:24.716Z,1.00
2022-11-01T18:42:55.990Z,1.00
2022-11-01T18:45:57.816Z,1.00
2022-11-01T18:51:16.300Z,1.00
2022-11-01T18:53:48.928Z,1.00
2022-11-01T18:56:26.504Z,1.00
2022-11-01T18:58:59.189Z,1.00
2022-11-01T19:01:33.392Z,1.00
2022-11-01T19:04:12.204Z,1.00
2022-11-01T19:06:42.100Z,1.00
2022-11-01T19:09:24.628Z,1.00
2022-11-01T19:12:00.166Z,1.00
2022-11-01T19:14:32.658Z,1.00
2022-11-01T19:17:02.609Z,1.00
2022-11-01T19:19:33.275Z,1.00
2022-11-01T19:22:04.947Z,1.00
2022-11-01T19:24:40.452Z,1.00
2022-11-01T19:27:21.491Z,1.00
2022-11-01T19:29:57.737Z,1.00
2022-11-01T19:32:28.937Z,1.00
2022-11-01T19:34:59.417Z,1.00
2022-11-01T19:37:34.857Z,1.00
2022-11-01T19:40:27.406Z,1.00
2022-11-01T19:42:58.115Z,1.00
2022-11-01T19:45:34.241Z,1.00
2022-11-01T19:48:05.667Z,1.00
2022-11-01T19:50:42.217Z,1.00
2022-11-01T19:53:34.143Z,1.00
2022-11-01T19:56:07.844Z,1.00
2022-11-01T19:58:45.780Z,1.00
2022-11-01T20:01:41.006Z,1.00
2022-11-01T20:04:27.222Z,1.00
2022-11-01T20:07:01.205Z,1.00
2022-11-01T20:09:33.393Z,1.00
2022-11-01T20:12:06.111Z,1.00
2022-11-01T20:14:36.958Z,1.00
2022-11-01T20:17:07.221Z,1.00
2022-11-01T20:19:37.497Z,1.00
2022-11-01T20:22:07.373Z,1.00
2022-11-01T20:24:37.889Z,1.00
2022-11-01T20:27:10.395Z,1.00
2022-11-01T20:29:40.797Z,1.00
2022-11-01T20:32:10.948Z,1.00
2022-11-01T20:34:41.670Z,1.00
2022-11-01T20:37:28.803Z,1.00
2022-11-01T20:39:59.414Z,1.00
2022-11-01T20:42:31.897Z,1.00
2022-11-01T20:45:02.371Z,1.00
2022-11-01T20:47:32.219Z,1.00
2022-11-01T20:50:03.264Z,1.00
2022-11-01T20:52:39.613Z,1.00
2022-11-01T20:55:12.168Z,1.00
2022-11-01T20:57:44.615Z,1.00
2022-11-01T21:00:18.328Z,1.00
2022-11-01T21:02:48.995Z,1.00
2022-11-01T21:05:24.753Z,1.00
2022-11-01T21:08:00.683Z,1.00
2022-11-01T21:10:36.214Z,1.00
2022-11-01T21:13:21.729Z,1.00
2022-11-01T21:15:53.786Z,1.00
2022-11-01T21:18:38.615Z,1.00
2022-11-01T21:21:46.574Z,1.00
2022-11-01T21:24:31.401Z,1.00
2022-11-01T21:27:17.839Z,1.00
2022-11-01T21:29:51.922Z,1.00
2022-11-01T21:32:30.464Z,1.00
2022-11-01T21:35:00.635Z,1.00
2022-11-01T21:37:31.959Z,1.00
2022-11-01T21:40:07.533Z,1.00
2022-11-01T21:42:39.419Z,1.00
2022-11-01T21:45:31.572Z,1.00
2022-11-01T21:48:05.066Z,1.00
2022-11-01T21:50:35.675Z,1.00
2022-11-01T21:53:05.865Z,1.00
2022-11-01T21:55:36.299Z,1.00
2022-11-01T21:58:06.223Z,1.00
2022-11-01T22:00:39.852Z,1.00
2022-11-01T22:03:09.778Z,1.00
2022-11-01T22:05:40.141Z,1.00
2022-11-01T22:08:10.064Z,1.00
2022-11-01T22:10:40.874Z,1.00
2022-11-01T22:13:11.561Z,1.00
2022-11-01T22:15:47.921Z,1.00
2022-11-01T22:18:22.374Z,1.00
2022-11-01T22:20:56.117Z,1.00
2022-11-01T22:23:26.692Z,1.00
2022-11-01T22:25:56.626Z,1.00
2022-11-01T22:28:27.549Z,1.00
2022-11-01T22:31:00.075Z,1.00
2022-11-01T22:33:30.320Z,1.00
2022-11-01T22:36:02.094Z,1.00
2022-11-01T22:38:37.975Z,1.00
2022-11-01T22:41:13.669Z,1.00
2022-11-01T22:43:45.640Z,1.00
2022-11-01T22:46:23.988Z,1.00
2022-11-01T22:48:58.832Z,1.00
2022-11-01T22:51:36.315Z,1.00
2022-11-01T22:54:17.655Z,1.00
2022-11-01T22:56:47.924Z,1.00
2022-11-01T22:59:18.798Z,1.00
2022-11-01T23:01:55.193Z,1.00
2022-11-01T23:04:25.772Z,1.00
2022-11-01T23:07:01.803Z,1.00
2022-11-01T23:09:32.487Z,1.00
2022-11-01T23:12:14.902Z,1.00
2022-11-01T23:14:48.680Z,1.00
2022-11-01T23:17:23.957Z,1.00
2022-11-01T23:19:56.167Z,1.00
2022-11-01T23:22:29.385Z,1.00
2022-11-01T23:25:00.090Z,1.00
2022-11-01T23:27:32.302Z,1.00
2022-11-01T23:30:05.543Z,1.00
2022-11-01T23:32:38.069Z,1.00
2022-11-01T23:35:16.177Z,1.00
2022-11-01T23:37:46.589Z,1.00
2022-11-01T23:40:20.032Z,1.00
2022-11-01T23:42:51.225Z,1.00
2022-11-01T23:45:34.485Z,1.00
2022-11-01T23:48:08.571Z,1.00
2022-11-01T23:50:40.875Z,1.00
2022-11-01T23:53:16.166Z,1.00
2022-11-01T23:55:50.287Z,1.00
2022-11-01T23:58:22.826Z,1.00
